Airfield :







YOU CAN JOIN US ON...

 
LOGIN :

Register | Disclaimer

   EN    FR    IT 

 









Legend :    VFR   Marginal VFR   IFR   Intensive IFR   Very Intensive IFR
Visi :
Ceiling :
>= 8 km
>= 3000ft
5 to 8 km
1000 to 3000 ft
1500m to 5 km
500 to 1000 ft
800 to 1500m
200 to 500 ft
< 800m
< 200 ft
Symbols :   Thunderstorms  Fog  Heavy snow  Heavy precipitations  Wind > 20 kt






- Airport Elevation : 129 ft
- IATA code : YVP


CYVP - Kuujjuak

CURRENT METAR :
  • 080600Z 32006KT 15SM BKN016 M14/M16 A3000 RMK SC5 SLP164

EXPIRED METARs :
  • 080500Z 32007KT 15SM SCT016 M13/M15 A3000 RMK SC4 SLP163
  • 080427Z 31005KT 15SM BKN016 M12/M13 A3000 RMK SC7 SLP163
  • 080400Z 30005KT 15SM BKN016 M11/M13 A3000 RMK SC7 INTMT -SN SLP163
  • 080300Z 31004KT 15SM -SN BKN016 M10/M13 A3000 RMK SC7 SLP164

TAF TAF CYVP
Valid from the 08 at 06:00 until the 08 at 18:00 UTC


080538Z 0806/0818 32007KT P6SM -SN BKN015
TEMPO 0806/0818 P6SM NSW SCT015
BECMG 0811/0813 36010KT RMK NXT FCST BY 081200Z



MET'MAP, your aeronautical weather chart ! - Copyright ORBIFLY December 2007 - Disclaimer

ORBIFLY MET'MAP TEAM :

Programming & Development : Alexandra Zaïnal
Concept & original design : Baudouin d'Aumeries
Assistance for programming : Marc-Olivier Méhu
Technical & hardware support : Manuel Goepfert

Contact : metmap@orbifly.com




SOURCES & CREDITS :

   NOAA